Weather History for Blair, NE

Change the Weather History Date:

Monday, February 18, 2013

  Actual Average (KOMA) Record (KOMA)
Temperature  
Mean Temperature 32 °F 29 °F  
Max Temperature 44 °F 39 °F 70 °F (1930)
Min Temperature 20 °F 19 °F -15 °F (1903)
Degree Days  
Heating Degree Days 32 36  
Month to date heating degree days 692  
Since 1 July heating degree days 4457  
Cooling Degree Days 0 0  
Month to date cooling degree days 0  
Year to date cooling degree days 0  
Moisture  
Dew Point 24 °F    
Average Humidity 72    
Maximum Humidity 92    
Minimum Humidity 58    
Precipitation  
Precipitation 0.00 in 0.03 in 0.68 in (1908)
Month to date precipitation 0.50  
Year to date precipitation 1.22  
Snow  
Snow 0.00 in 0.30 in - ()
Month to date snowfall 4.2  
Since 1 July snowfall 19.3  
Snow Depth -    
Sea Level Pressure  
Sea Level Pressure 29.77 in    
Wind  
Wind Speed 15 mph (NW)    
Max Wind Speed 29 mph    
Max Gust Speed 43 mph    
Visibility 10 miles    
Events Snow    
T = Trace of Precipitation, MM = Missing Value Source: NWS Daily Summary

Daily Weather History Graph

Daily Weather History Graph

Search for Another Location

Airport:

Trip Planner

Search our weather history database for the weather conditions in past years. The results will help you decide how hot, cold, wet, or windy it might be!

Date:

Astronomy

Feb. 18, 2013 Rise Set
Actual Time 7:14 AM CST 6:02 PM CST
Civil Twilight 6:46 AM CST 6:30 PM CST
Nautical Twilight 6:14 AM CST 7:02 PM CST
Astronomical Twilight 5:42 AM CST 7:34 PM CST
Moon 11:47 AM CST (2/18) 1:57 AM CST (2/18)
Length of Visible Light 11h 43m
Length of Day
10h 47m
First Quarter, 58% of the Moon is Illuminated
Feb 18
First Quarter
Feb 25
Full
Mar 4
Last Quarter
Mar 11
New
Mar 19
First Quarter

Hourly Weather History & Observations

Time (CST) Temp. Windchill Dew Point Humidity Pressure Visibility Wind Dir Wind Speed Gust Speed Precip Events Conditions
12:15 AM 44.1 °F 38.1 °F 32.4 °F 63% 29.55 in 10.0 mi SSE 11.5 mph - N/A   Clear
12:35 AM 43.7 °F 38.1 °F 32.4 °F 64% 29.54 in 10.0 mi SSE 10.4 mph - N/A   Clear
12:55 AM 42.3 °F 37.9 °F 32.0 °F 67% 29.54 in 10.0 mi South 6.9 mph - N/A   Clear
1:15 AM 41.7 °F 39.8 °F 32.0 °F 68% 29.54 in 10.0 mi WSW 3.5 mph - N/A   Clear
1:35 AM 40.1 °F 36.1 °F 32.0 °F 73% 29.58 in 10.0 mi NW 5.8 mph - N/A   Clear
1:55 AM 40.8 °F - 32.0 °F 71% 29.56 in 10.0 mi Calm Calm - N/A   Clear
2:15 AM 38.3 °F 35.9 °F 31.8 °F 77% 29.57 in 10.0 mi NW 3.5 mph - N/A   Clear
2:35 AM 39.6 °F 36.3 °F 32.0 °F 74% 29.56 in 10.0 mi NNW 4.6 mph - N/A   Clear
2:55 AM 37.8 °F 33.3 °F 31.8 °F 79% 29.56 in 10.0 mi NW 5.8 mph - N/A   Clear
3:15 AM 37.9 °F 32.1 °F 32.0 °F 79% 29.57 in 10.0 mi NNW 8.1 mph - N/A   Clear
3:35 AM 38.7 °F 30.5 °F 32.0 °F 77% 29.56 in 10.0 mi North 13.8 mph - N/A   Clear
3:55 AM 39.2 °F 30.5 °F 32.0 °F 75% 29.56 in 10.0 mi North 16.1 mph - N/A   Clear
4:15 AM 39.2 °F 30.5 °F 32.0 °F 75% 29.56 in 10.0 mi North 16.1 mph 23.0 mph N/A   Clear
4:35 AM 39.2 °F 30.5 °F 32.0 °F 75% 29.57 in 10.0 mi North 16.1 mph 19.6 mph N/A   Clear
4:55 AM 39.2 °F 30.2 °F 32.0 °F 75% 29.58 in 10.0 mi North 17.3 mph - N/A   Clear
5:15 AM 38.8 °F 29.4 °F 32.0 °F 76% 29.57 in 10.0 mi North 18.4 mph 25.3 mph N/A   Clear
5:35 AM 38.5 °F 28.6 °F 32.0 °F 78% 29.57 in 10.0 mi NNW 19.6 mph 25.3 mph N/A   Clear
5:55 AM 37.6 °F 28.4 °F 32.0 °F 80% 29.58 in 10.0 mi NNW 16.1 mph - N/A   Clear
6:15 AM 37.2 °F 28.7 °F 32.0 °F 81% 29.59 in 10.0 mi NNW 13.8 mph - N/A   Clear
6:35 AM 36.7 °F 29.9 °F 32.0 °F 83% 29.61 in 10.0 mi North 9.2 mph - N/A   Clear
6:55 AM 36.0 °F 29.0 °F 31.5 °F 84% 29.62 in 10.0 mi North 9.2 mph - N/A   Clear
7:15 AM 36.1 °F 28.7 °F 31.5 °F 83% 29.62 in 10.0 mi NNW 10.4 mph - N/A   Mostly Cloudy
7:35 AM 35.6 °F 30.7 °F 31.1 °F 84% 29.64 in 10.0 mi NNW 5.8 mph - N/A   Mostly Cloudy
7:55 AM 36.5 °F 33.9 °F 31.6 °F 83% 29.66 in 10.0 mi NNW 3.5 mph - N/A   Overcast
8:15 AM 36.9 °F 30.1 °F 31.6 °F 81% 29.66 in 10.0 mi NNW 9.2 mph - N/A   Overcast
8:35 AM 37.4 °F 29.3 °F 31.8 °F 80% 29.66 in 10.0 mi NW 12.7 mph 17.3 mph N/A   Overcast
8:55 AM 37.9 °F 28.2 °F 31.3 °F 77% 29.67 in 10.0 mi NNW 18.4 mph - N/A   Overcast
9:15 AM 38.3 °F 28.4 °F 30.6 °F 74% 29.68 in 10.0 mi NNW 19.6 mph 28.8 mph N/A   Overcast
9:35 AM 38.1 °F 27.6 °F 30.2 °F 73% 29.69 in 10.0 mi NNW 21.9 mph 29.9 mph N/A   Overcast
9:55 AM 37.8 °F 26.3 °F 30.2 °F 74% 29.69 in 10.0 mi NNW 25.3 mph 31.1 mph N/A   Overcast
10:15 AM 36.9 °F 25.6 °F 30.2 °F 77% 29.70 in 5.0 mi NNW 23.0 mph 36.8 mph N/A Snow Light Snow
10:35 AM 33.4 °F 21.7 °F 31.1 °F 91% 29.72 in 0.5 mi NNW 20.7 mph 32.2 mph N/A Snow Snow
10:55 AM 33.1 °F 21.2 °F 30.9 °F 92% 29.74 in 1.0 mi NW 20.7 mph 31.1 mph N/A Snow Light Snow
11:15 AM 33.1 °F 19.6 °F 27.9 °F 81% 29.75 in 10.0 mi NNW 27.6 mph 33.4 mph N/A   Overcast
11:35 AM 32.2 °F 18.6 °F 26.1 °F 78% 29.76 in 10.0 mi NW 26.5 mph 36.8 mph N/A   Overcast
11:55 AM 32.0 °F 18.4 °F 25.0 °F 75% 29.77 in 10.0 mi NW 26.5 mph 35.7 mph N/A   Overcast
12:15 PM 32.0 °F 19.2 °F 24.1 °F 73% 29.78 in 10.0 mi NW 23.0 mph 31.1 mph N/A   Overcast
12:35 PM 31.1 °F 16.9 °F 24.3 °F 76% 29.78 in 10.0 mi NW 27.6 mph 35.7 mph N/A   Overcast
12:55 PM 30.0 °F 16.6 °F 22.5 °F 73% 29.80 in 10.0 mi NW 23.0 mph 36.8 mph N/A   Overcast
1:15 PM 30.2 °F 15.7 °F 21.6 °F 70% 29.80 in 10.0 mi NW 27.6 mph 36.8 mph N/A   Overcast
1:35 PM 30.0 °F 16.3 °F 21.4 °F 70% 29.81 in 10.0 mi NW 24.2 mph 29.9 mph N/A   Overcast
1:55 PM 28.9 °F 15.1 °F 20.3 °F 70% 29.82 in 10.0 mi NW 23.0 mph 32.2 mph N/A   Overcast
2:15 PM 30.7 °F 16.7 °F 19.6 °F 63% 29.83 in 10.0 mi NW 26.5 mph 35.7 mph N/A   Overcast
2:35 PM 29.7 °F 14.7 °F 19.0 °F 65% 29.84 in 10.0 mi NW 28.8 mph 36.8 mph N/A   Overcast
2:55 PM 29.1 °F 14.5 °F 17.6 °F 62% 29.84 in 10.0 mi NW 26.5 mph 35.7 mph N/A   Overcast
3:15 PM 29.3 °F 15.3 °F 16.7 °F 59% 29.85 in 10.0 mi WNW 24.2 mph 42.6 mph N/A   Mostly Cloudy
3:35 PM 30.2 °F 16.2 °F 17.2 °F 59% 29.85 in 10.0 mi WNW 25.3 mph 36.8 mph N/A   Mostly Cloudy
3:55 PM 29.3 °F 14.7 °F 17.1 °F 60% 29.86 in 10.0 mi NW 26.5 mph 38.0 mph N/A   Mostly Cloudy
4:15 PM 29.1 °F 14.8 °F 15.8 °F 58% 29.86 in 10.0 mi NW 25.3 mph 36.8 mph N/A   Scattered Clouds
4:35 PM 29.5 °F 14.5 °F 16.3 °F 58% 29.87 in 10.0 mi NW 28.8 mph 40.3 mph N/A   Clear
4:55 PM 29.7 °F 15.5 °F 16.5 °F 58% 29.88 in 10.0 mi NW 25.3 mph 41.4 mph N/A   Scattered Clouds
5:15 PM 28.9 °F 14.8 °F 16.3 °F 59% 29.89 in 10.0 mi NW 24.2 mph 36.8 mph N/A   Scattered Clouds
5:35 PM 28.0 °F 13.6 °F 16.2 °F 61% 29.90 in 10.0 mi NW 24.2 mph 33.4 mph N/A   Clear
5:55 PM 27.0 °F 12.2 °F 16.3 °F 64% 29.91 in 10.0 mi NW 24.2 mph 32.2 mph N/A   Clear
6:15 PM 26.2 °F 12.2 °F 15.8 °F 65% 29.92 in 10.0 mi NW 20.7 mph 33.4 mph N/A   Clear
6:35 PM 25.7 °F 13.5 °F 15.8 °F 66% 29.93 in 10.0 mi NW 15.0 mph 21.9 mph N/A   Clear
6:55 PM 25.5 °F 12.4 °F 16.2 °F 68% 29.94 in 10.0 mi NW 17.3 mph 21.9 mph N/A   Clear
7:15 PM 25.7 °F 10.2 °F 15.4 °F 65% 29.95 in 10.0 mi NW 25.3 mph 35.7 mph N/A   Clear
7:35 PM 23.9 °F 9.1 °F 14.4 °F 67% 29.96 in 10.0 mi NW 20.7 mph 28.8 mph N/A   Clear
7:55 PM 23.4 °F 9.2 °F 14.7 °F 70% 29.97 in 10.0 mi NW 18.4 mph 27.6 mph N/A   Clear
8:15 PM 22.8 °F 8.1 °F 14.2 °F 69% 29.97 in 10.0 mi NW 19.6 mph 27.6 mph N/A   Clear
8:35 PM 22.6 °F 8.7 °F 13.5 °F 68% 29.97 in 10.0 mi NW 17.3 mph 24.2 mph N/A   Clear
8:55 PM 22.1 °F 9.5 °F 13.1 °F 68% 29.98 in 10.0 mi NW 13.8 mph 23.0 mph N/A   Clear
9:15 PM 21.9 °F 6.9 °F 13.1 °F 69% 29.98 in 10.0 mi NW 19.6 mph 25.3 mph N/A   Clear
9:35 PM 21.7 °F 7.5 °F 13.6 °F 71% 30.00 in 10.0 mi NW 17.3 mph 23.0 mph N/A   Clear
9:55 PM 21.6 °F 9.9 °F 14.0 °F 73% 30.00 in 10.0 mi NW 11.5 mph 17.3 mph N/A   Clear
10:15 PM 21.2 °F 9.5 °F 14.4 °F 75% 30.01 in 10.0 mi WNW 11.5 mph 16.1 mph N/A   Scattered Clouds
10:35 PM 21.9 °F 8.7 °F 14.9 °F 74% 30.02 in 10.0 mi NW 15.0 mph 20.7 mph N/A   Mostly Cloudy
10:55 PM 22.6 °F 9.2 °F 15.4 °F 74% 30.03 in 10.0 mi WNW 16.1 mph 23.0 mph N/A   Overcast
11:15 PM 22.5 °F 7.2 °F 14.5 °F 72% 30.03 in 10.0 mi NW 20.7 mph 32.2 mph N/A   Overcast
11:35 PM 21.6 °F 6.1 °F 13.8 °F 72% 30.03 in 10.0 mi NW 20.7 mph 28.8 mph N/A   Mostly Cloudy
11:55 PM 20.5 °F 5.0 °F 13.1 °F 73% 30.04 in 10.0 mi NW 19.6 mph 28.8 mph N/A   Scattered Clouds